Paul Brotzge — WDD4377 — position and weather

sailwx.info

Track history (hours):
 
Tides and Currents Weather Stations Pressure Air Temp Water Temp Dewpoint Dewpoint Depression Visibility Wind Speed Wind Dir Waves Ship Positions

Paul Brotzge

Owner: American Commercial Lines LLC, Jeffersonville, IN. More information available from US FCC via Universal Licensing System and Coast Guard Vessel Documentation Center.

Last reported at 2015-Nov-04 03:22 UTC. Time now 2016-May-04 01:57 UTC.
Position N 38°56' W 084°52'.
Warning: this ship's position is months out of date.

Length 45 m; draft 2.9 m.

MMSI: 367143920.

Date/timePositionNaut miles runAvg speedWind from/ knotsBaromVisibWave heightAir tempDewpointWater temp
2015-Nov-04 03:22N 38°56' W 084°52'11 4.9
2015-Nov-04 01:06N 39°07' W 084°48'3 5.9
2015-Nov-04 00:33N 39°09' W 084°45'4 4.0
2015-Nov-03 23:32N 39°06' W 084°41'0 0.0
2015-Nov-03 22:32N 39°06' W 084°41'0 0.0
2015-Nov-03 21:33N 39°06' W 084°41'0 0.0
2015-Nov-03 20:32N 39°06' W 084°41'0 0.0
2015-Nov-03 19:33N 39°06' W 084°41'6 5.6
2015-Nov-03 18:33N 39°05' W 084°34'6 5.8
2015-Nov-03 17:33N 39°07' W 084°27'7 6.5
2015-Nov-03 16:33N 39°02' W 084°21'7 7.2
2015-Nov-03 15:33N 38°56' W 084°16'6 5.7
2015-Nov-03 14:33N 38°51' W 084°14'0 0.0
2015-Nov-03 13:28N 38°51' W 084°14'0 0.0
2015-Nov-03 11:31N 38°51' W 084°14'0 0.0
2015-Nov-03 10:33N 38°51' W 084°14'0 0.0
2015-Nov-03 09:33N 38°51' W 084°14'0 0.0
2015-Nov-03 08:32N 38°51' W 084°14'2 1.7
2015-Nov-03 07:33N 38°49' W 084°14'3 2.9
2015-Nov-03 06:30N 38°48' W 084°10'1 0.8
2015-Nov-03 05:27N 38°48' W 084°09'5 5.4
2015-Nov-03 04:32N 38°46' W 084°03'7 6.8
2015-Nov-03 03:33N 38°46' W 083°54'  
2015-Oct-27 16:27N 38°45' W 083°51'10 5.1
2015-Oct-27 14:27N 38°46' W 084°04'5 5.5
2015-Oct-27 13:32N 38°48' W 084°10'1 1.5
2015-Oct-27 12:33N 38°48' W 084°12'4 4.4
2015-Oct-27 11:33N 38°52' W 084°14'5 4.9
2015-Oct-27 10:33N 38°57' W 084°17'5 5.2
2015-Oct-27 09:33N 39°01' W 084°19'5 5.1
2015-Oct-27 08:32N 39°03' W 084°26'5 4.6
2015-Oct-27 07:33N 39°07' W 084°28'4 3.5
2015-Oct-27 06:33N 39°06' W 084°33'5 4.5
2015-Oct-27 05:32N 39°05' W 084°38'5 5.4
2015-Oct-27 04:32N 39°08' W 084°44'13 4.1
2015-Oct-27 01:23N 38°57' W 084°51'  
Track history (hours):
 
Tides and Currents Weather Stations Pressure Air Temp Water Temp Dewpoint Dewpoint Depression Visibility Wind Speed Wind Dir Waves Ship Positions

Paul Brotzge

Owner: American Commercial Lines LLC, Jeffersonville, IN. More information available from US FCC via Universal Licensing System and Coast Guard Vessel Documentation Center.

Last reported at 2015-Nov-04 03:22 UTC. Time now 2016-May-04 01:57 UTC.
Position N 38°56' W 084°52'.
Warning: this ship's position is months out of date.

Length 45 m; draft 2.9 m.

MMSI: 367143920.

Date/timePositionNaut miles runAvg speedWind from/ knotsBaromVisibWave heightAir tempDewpointWater temp
2015-Nov-04 03:22N 38°56' W 084°52'11 4.9
2015-Nov-04 01:06N 39°07' W 084°48'3 5.9
2015-Nov-04 00:33N 39°09' W 084°45'4 4.0
2015-Nov-03 23:32N 39°06' W 084°41'0 0.0
2015-Nov-03 22:32N 39°06' W 084°41'0 0.0
2015-Nov-03 21:33N 39°06' W 084°41'0 0.0
2015-Nov-03 20:32N 39°06' W 084°41'0 0.0
2015-Nov-03 19:33N 39°06' W 084°41'6 5.6
2015-Nov-03 18:33N 39°05' W 084°34'6 5.8
2015-Nov-03 17:33N 39°07' W 084°27'7 6.5
2015-Nov-03 16:33N 39°02' W 084°21'7 7.2
2015-Nov-03 15:33N 38°56' W 084°16'6 5.7
2015-Nov-03 14:33N 38°51' W 084°14'0 0.0
2015-Nov-03 13:28N 38°51' W 084°14'0 0.0
2015-Nov-03 11:31N 38°51' W 084°14'0 0.0
2015-Nov-03 10:33N 38°51' W 084°14'0 0.0
2015-Nov-03 09:33N 38°51' W 084°14'0 0.0
2015-Nov-03 08:32N 38°51' W 084°14'2 1.7
2015-Nov-03 07:33N 38°49' W 084°14'3 2.9
2015-Nov-03 06:30N 38°48' W 084°10'1 0.8
2015-Nov-03 05:27N 38°48' W 084°09'5 5.4
2015-Nov-03 04:32N 38°46' W 084°03'7 6.8
2015-Nov-03 03:33N 38°46' W 083°54'  
2015-Oct-27 16:27N 38°45' W 083°51'10 5.1
2015-Oct-27 14:27N 38°46' W 084°04'5 5.5
2015-Oct-27 13:32N 38°48' W 084°10'1 1.5
2015-Oct-27 12:33N 38°48' W 084°12'4 4.4
2015-Oct-27 11:33N 38°52' W 084°14'5 4.9
2015-Oct-27 10:33N 38°57' W 084°17'5 5.2
2015-Oct-27 09:33N 39°01' W 084°19'5 5.1
2015-Oct-27 08:32N 39°03' W 084°26'5 4.6
2015-Oct-27 07:33N 39°07' W 084°28'4 3.5
2015-Oct-27 06:33N 39°06' W 084°33'5 4.5
2015-Oct-27 05:32N 39°05' W 084°38'5 5.4
2015-Oct-27 04:32N 39°08' W 084°44'13 4.1
2015-Oct-27 01:23N 38°57' W 084°51'  

Dump ship's entire track history